Terminal Aerodrome Forecast
Issued by NWS Jackson, MS

Home | Current Version | Previous Version | Text Only | Print | Product List | Glossary On
Versions: 1 2 3 4 5 6 7 8 9 10 11 12 13 14 15
687
FTUS44 KMEG 250532
TAFTUP
TAF
KTUP 250532Z 2506/2606 18004KT P6SM BKN250
     FM251000 23005KT P6SM BKN090 OVC150
     FM251900 33008KT P6SM BKN150
     FM260000 36004KT P6SM SCT250=

USA.gov is the U.S. government's official web portal to all federal, state and local government web resources and services.